createdAt,value
2022-10-21T00:00:57.458Z,53.66
2022-10-21T00:03:36.399Z,52.04
2022-10-21T00:06:05.676Z,54.04
2022-10-21T00:08:33.728Z,55.89
2022-10-21T00:11:03.447Z,57.96
2022-10-21T00:13:32.540Z,58.16
2022-10-21T00:16:12.355Z,59.73
2022-10-21T00:18:42.193Z,60.94
2022-10-21T00:21:14.037Z,61.43
2022-10-21T00:23:42.631Z,60.32
2022-10-21T00:26:11.383Z,67.50
2022-10-21T00:28:39.333Z,71.09
2022-10-21T00:31:09.368Z,63.66
2022-10-21T00:33:37.282Z,56.58
2022-10-21T00:36:07.555Z,53.62
2022-10-21T00:38:36.496Z,54.69
2022-10-21T00:41:04.190Z,56.41
2022-10-21T00:43:31.975Z,57.83
2022-10-21T00:46:07.205Z,58.66
2022-10-21T00:48:40.853Z,60.01
2022-10-21T00:51:12.793Z,61.17
2022-10-21T00:53:44.569Z,61.65
2022-10-21T00:56:16.840Z,67.65
2022-10-21T00:58:47.169Z,70.52
2022-10-21T01:01:17.987Z,64.02
2022-10-21T01:03:50.238Z,55.90
2022-10-21T01:06:21.776Z,53.15
2022-10-21T01:08:50.749Z,54.58
2022-10-21T01:11:21.206Z,55.61
2022-10-21T01:14:00.845Z,56.58
2022-10-21T01:16:37.184Z,58.98
2022-10-21T01:19:29.549Z,60.72
2022-10-21T01:22:09.592Z,61.66
2022-10-21T01:25:06.576Z,67.92
2022-10-21T01:27:55.746Z,66.17
2022-10-21T01:30:45.103Z,56.07
2022-10-21T01:33:22.981Z,52.13
2022-10-21T01:36:24.805Z,52.91
2022-10-21T01:39:09.892Z,55.56
2022-10-21T01:41:51.829Z,56.65
2022-10-21T01:44:23.436Z,58.33
2022-10-21T01:47:17.298Z,59.62
2022-10-21T01:49:56.162Z,60.25
2022-10-21T01:52:24.177Z,62.10
2022-10-21T01:54:59.441Z,69.42
2022-10-21T01:57:33.588Z,71.69
2022-10-21T02:00:02.062Z,63.43
2022-10-21T02:02:35.543Z,58.20
2022-10-21T02:05:09.988Z,51.52
2022-10-21T02:07:37.589Z,52.24
2022-10-21T02:10:05.720Z,53.99
2022-10-21T02:12:35.863Z,55.36
2022-10-21T02:15:07.991Z,57.25
2022-10-21T02:17:39.246Z,58.33
2022-10-21T02:20:12.748Z,59.54
2022-10-21T02:22:43.001Z,61.45
2022-10-21T02:25:17.228Z,68.03
2022-10-21T02:27:44.996Z,70.36
2022-10-21T02:30:13.064Z,63.69
2022-10-21T02:33:16.293Z,57.14
2022-10-21T02:36:02.288Z,53.99
2022-10-21T02:38:37.992Z,54.76
2022-10-21T02:41:10.230Z,56.86
2022-10-21T02:43:52.856Z,58.39
2022-10-21T02:46:21.011Z,60.15
2022-10-21T02:48:49.305Z,61.34
2022-10-21T02:51:17.229Z,67.12
2022-10-21T02:53:44.960Z,69.37
2022-10-21T02:56:12.583Z,60.68
2022-10-21T02:58:40.172Z,53.60
2022-10-21T03:01:07.830Z,52.69
2022-10-21T03:03:35.539Z,53.69
2022-10-21T03:06:03.286Z,55.87
2022-10-21T03:08:31.090Z,57.84
2022-10-21T03:11:01.052Z,59.15
2022-10-21T03:13:28.743Z,60.38
2022-10-21T03:15:56.391Z,61.42
2022-10-21T03:18:24.031Z,64.57
2022-10-21T03:20:52.336Z,71.14
2022-10-21T03:23:20.799Z,66.14
2022-10-21T03:25:48.480Z,60.55
2022-10-21T03:28:20.800Z,54.56
2022-10-21T03:30:48.717Z,52.74
2022-10-21T03:33:16.421Z,54.60
2022-10-21T03:35:44.257Z,56.09
2022-10-21T03:38:11.885Z,57.81
2022-10-21T03:40:39.606Z,59.45
2022-10-21T03:43:07.276Z,61.01
2022-10-21T03:45:34.864Z,65.25
2022-10-21T03:48:02.595Z,70.55
2022-10-21T03:50:30.203Z,64.22
2022-10-21T03:52:59.262Z,56.91
2022-10-21T03:55:27.236Z,53.91
2022-10-21T03:57:54.935Z,54.64
2022-10-21T04:00:24.362Z,57.50
2022-10-21T04:02:53.744Z,58.83
2022-10-21T04:05:21.451Z,61.15
2022-10-21T04:07:52.184Z,66.06
2022-10-21T04:10:21.151Z,68.60
2022-10-21T04:12:48.804Z,61.31
2022-10-21T04:15:17.107Z,54.70
2022-10-21T04:17:47.792Z,53.30
2022-10-21T04:20:15.466Z,54.52
2022-10-21T04:22:43.153Z,56.26
2022-10-21T04:25:10.759Z,59.67
2022-10-21T04:27:38.438Z,61.44
2022-10-21T04:30:06.940Z,69.13
2022-10-21T04:32:35.090Z,65.12
2022-10-21T04:35:02.935Z,60.54
2022-10-21T04:37:30.516Z,54.28
2022-10-21T04:39:58.208Z,52.74
2022-10-21T04:42:25.796Z,54.56
2022-10-21T04:44:53.398Z,56.38
2022-10-21T04:47:20.979Z,57.73
2022-10-21T04:49:48.758Z,60.84
2022-10-21T04:52:16.444Z,66.70
2022-10-21T04:54:44.253Z,69.44
2022-10-21T04:57:13.526Z,63.34
2022-10-21T04:59:41.159Z,57.08
2022-10-21T05:02:08.808Z,53.29
2022-10-21T05:04:36.503Z,54.20
2022-10-21T05:07:04.159Z,56.03
2022-10-21T05:09:31.859Z,58.48
2022-10-21T05:11:59.493Z,59.76
2022-10-21T05:14:27.119Z,64.30
2022-10-21T05:16:54.739Z,68.95
2022-10-21T05:19:22.338Z,64.57
2022-10-21T05:21:49.947Z,58.49
2022-10-21T05:24:17.636Z,53.42
2022-10-21T05:26:45.221Z,53.03
2022-10-21T05:29:12.856Z,55.32
2022-10-21T05:31:40.716Z,57.72
2022-10-21T05:34:08.555Z,60.10
2022-10-21T05:36:36.468Z,64.06
2022-10-21T05:39:04.345Z,68.11
2022-10-21T05:41:32.042Z,63.40
2022-10-21T05:43:59.649Z,57.26
2022-10-21T05:46:27.380Z,53.47
2022-10-21T05:48:55.021Z,54.29
2022-10-21T05:51:26.384Z,56.09
2022-10-21T05:53:55.146Z,58.76
2022-10-21T05:56:22.840Z,63.21
2022-10-21T05:58:51.566Z,68.82
2022-10-21T06:01:19.344Z,63.81
2022-10-21T06:03:47.290Z,57.53
2022-10-21T06:06:15.087Z,53.31
2022-10-21T06:08:42.876Z,53.71
2022-10-21T06:11:13.553Z,55.54
2022-10-21T06:13:41.802Z,57.08
2022-10-21T06:16:10.686Z,58.61
2022-10-21T06:18:39.285Z,60.82
2022-10-21T06:21:07.379Z,66.48
2022-10-21T06:23:35.411Z,68.26
2022-10-21T06:26:11.990Z,61.31
2022-10-21T06:28:42.231Z,54.71
2022-10-21T06:31:14.077Z,53.09
2022-10-21T06:33:42.020Z,54.96
2022-10-21T06:36:09.821Z,57.37
2022-10-21T06:38:38.371Z,59.22
2022-10-21T06:41:12.176Z,61.73
2022-10-21T06:43:43.008Z,67.27
2022-10-21T06:46:13.380Z,67.40
2022-10-21T06:48:41.759Z,60.79
2022-10-21T06:51:19.446Z,53.77
2022-10-21T06:53:51.453Z,51.49
2022-10-21T06:56:19.774Z,53.23
2022-10-21T06:58:49.274Z,56.03
2022-10-21T07:01:33.473Z,59.30
2022-10-21T07:04:04.587Z,63.48
2022-10-21T07:09:01.474Z,61.00
2022-10-21T07:11:29.299Z,54.46
2022-10-21T07:13:56.936Z,53.40
2022-10-21T07:16:30.374Z,56.27
2022-10-21T07:18:58.645Z,59.55
2022-10-21T07:21:29.155Z,61.31
2022-10-21T07:23:59.563Z,65.61
2022-10-21T07:26:30.719Z,62.02
2022-10-21T07:29:00.480Z,53.58
2022-10-21T07:31:31.416Z,52.42
2022-10-21T07:36:38.883Z,57.67
2022-10-21T07:39:10.319Z,60.21
2022-10-21T07:41:44.641Z,60.85
2022-10-21T07:44:12.662Z,65.00
2022-10-21T07:46:42.029Z,62.59
2022-10-21T07:49:11.054Z,55.90
2022-10-21T07:51:39.056Z,53.70
2022-10-21T07:54:07.257Z,55.31
2022-10-21T07:56:38.373Z,57.75
2022-10-21T07:59:11.645Z,60.78
2022-10-21T08:01:44.796Z,63.36
2022-10-21T08:04:18.516Z,66.13
2022-10-21T08:06:48.046Z,60.99
2022-10-21T08:09:16.374Z,53.50
2022-10-21T08:11:44.532Z,52.62
2022-10-21T08:14:12.783Z,55.29
2022-10-21T08:16:40.757Z,57.65
2022-10-21T08:19:09.440Z,58.18
2022-10-21T08:21:37.422Z,62.68
2022-10-21T08:24:05.433Z,65.10
2022-10-21T08:26:33.147Z,61.15
2022-10-21T08:29:02.989Z,53.33
2022-10-21T08:31:30.909Z,51.36
2022-10-21T08:33:59.462Z,53.14
2022-10-21T08:36:27.281Z,55.63
2022-10-21T08:38:55.281Z,58.04
2022-10-21T08:41:28.960Z,59.33
2022-10-21T08:44:05.375Z,61.43
2022-10-21T08:46:41.123Z,67.14
2022-10-21T08:49:34.279Z,65.09
2022-10-21T08:52:12.540Z,56.93
2022-10-21T08:54:47.791Z,53.41
2022-10-21T08:57:15.626Z,53.56
2022-10-21T08:59:43.755Z,55.64
2022-10-21T09:02:41.655Z,58.35
2022-10-21T09:05:15.528Z,60.37
2022-10-21T09:07:51.068Z,63.69
2022-10-21T09:10:33.707Z,61.61
2022-10-21T09:13:11.370Z,52.98
2022-10-21T09:15:41.970Z,52.18
2022-10-21T09:18:26.678Z,53.37
2022-10-21T09:20:59.492Z,55.04
2022-10-21T09:23:55.571Z,55.96
2022-10-21T09:26:35.261Z,58.23
2022-10-21T09:29:30.769Z,58.31
2022-10-21T09:32:19.620Z,58.96
2022-10-21T09:34:59.395Z,58.67
2022-10-21T09:37:40.449Z,58.87
2022-10-21T09:40:26.724Z,59.30
2022-10-21T09:42:58.820Z,58.91
2022-10-21T09:45:39.042Z,60.98
2022-10-21T09:48:20.403Z,61.45
2022-10-21T09:51:00.990Z,62.00
2022-10-21T09:53:37.565Z,65.40
2022-10-21T09:56:13.506Z,63.32
2022-10-21T09:58:41.154Z,53.31
2022-10-21T10:01:14.849Z,51.77
2022-10-21T10:03:46.105Z,52.87
2022-10-21T10:06:29.888Z,54.59
2022-10-21T10:09:29.465Z,56.48
2022-10-21T10:12:13.479Z,58.94
2022-10-21T10:14:43.460Z,60.99
2022-10-21T10:17:31.677Z,61.12
2022-10-21T10:20:10.741Z,64.26
2022-10-21T10:22:44.646Z,61.90
2022-10-21T10:25:12.238Z,54.42
2022-10-21T10:27:52.647Z,52.53
2022-10-21T10:30:25.529Z,54.34
2022-10-21T10:32:56.212Z,55.66
2022-10-21T10:35:34.404Z,55.83
2022-10-21T10:38:03.134Z,56.49
2022-10-21T10:40:41.917Z,57.58
2022-10-21T10:43:19.557Z,58.12
2022-10-21T10:45:57.323Z,58.67
2022-10-21T10:48:32.571Z,59.21
2022-10-21T10:51:00.202Z,59.15
2022-10-21T10:53:36.541Z,60.22
2022-10-21T10:56:13.525Z,60.73
2022-10-21T10:58:52.897Z,60.05
2022-10-21T11:01:39.983Z,61.12
2022-10-21T11:04:17.587Z,61.85
2022-10-21T11:07:03.193Z,61.85
2022-10-21T11:09:34.360Z,61.94
2022-10-21T11:12:06.900Z,61.37
2022-10-21T11:14:34.526Z,61.26
2022-10-21T11:17:18.245Z,60.83
2022-10-21T11:20:04.499Z,61.19
2022-10-21T11:22:50.404Z,61.32
2022-10-21T11:25:43.522Z,61.72
2022-10-21T11:28:31.623Z,61.75
2022-10-21T11:31:15.633Z,61.80
2022-10-21T11:33:49.147Z,62.02
2022-10-21T11:36:44.768Z,62.73
2022-10-21T11:39:21.249Z,65.33
2022-10-21T11:41:56.658Z,56.27
2022-10-21T11:44:56.852Z,53.12
2022-10-21T11:47:30.532Z,53.86
2022-10-21T11:53:12.677Z,56.55
2022-10-21T11:55:58.655Z,58.83
2022-10-21T11:58:34.998Z,59.84
2022-10-21T12:01:29.000Z,60.65
2022-10-21T12:04:13.392Z,60.96
2022-10-21T12:06:57.073Z,61.76
2022-10-21T12:09:46.354Z,62.08
2022-10-21T12:12:17.725Z,62.98
2022-10-21T12:15:02.519Z,64.89
2022-10-21T12:17:34.660Z,56.24
2022-10-21T12:20:13.778Z,52.55
2022-10-21T12:22:41.977Z,53.36
2022-10-21T12:25:12.828Z,54.79
2022-10-21T12:27:50.773Z,55.97
2022-10-21T12:30:30.495Z,57.04
2022-10-21T12:33:25.300Z,58.89
2022-10-21T12:35:57.140Z,59.46
2022-10-21T12:38:43.906Z,60.28
2022-10-21T12:41:24.954Z,60.89
2022-10-21T12:44:04.017Z,61.71
2022-10-21T12:46:40.157Z,64.21
2022-10-21T12:49:32.549Z,60.28
2022-10-21T12:52:09.749Z,52.96
2022-10-21T12:54:42.011Z,52.76
2022-10-21T12:57:21.803Z,54.23
2022-10-21T12:59:49.468Z,55.66
2022-10-21T13:02:28.186Z,57.78
2022-10-21T13:04:57.340Z,59.66
2022-10-21T13:07:31.449Z,60.27
2022-10-21T13:09:59.353Z,60.73
2022-10-21T13:12:30.542Z,61.33
2022-10-21T13:15:02.280Z,63.40
2022-10-21T13:17:48.326Z,64.87
2022-10-21T13:20:15.891Z,57.01
2022-10-21T13:23:03.451Z,52.36
2022-10-21T13:25:36.181Z,53.27
2022-10-21T13:28:19.691Z,54.65
2022-10-21T13:30:50.345Z,56.24
2022-10-21T13:33:20.834Z,58.17
2022-10-21T13:35:55.815Z,58.56
2022-10-21T13:38:29.569Z,59.48
2022-10-21T13:41:07.286Z,61.79
2022-10-21T13:43:48.510Z,62.09
2022-10-21T13:46:24.821Z,64.12
2022-10-21T13:48:53.409Z,60.62
2022-10-21T13:51:25.201Z,53.59
2022-10-21T13:53:55.921Z,52.36
2022-10-21T13:56:32.765Z,53.03
2022-10-21T13:59:00.938Z,54.52
2022-10-21T14:01:49.207Z,55.55
2022-10-21T14:04:20.489Z,57.67
2022-10-21T14:07:01.493Z,59.31
2022-10-21T14:09:33.685Z,60.64
2022-10-21T14:12:07.411Z,61.53
2022-10-21T14:14:39.887Z,64.25
2022-10-21T14:17:15.257Z,63.73
2022-10-21T14:19:48.621Z,55.93
2022-10-21T14:22:20.965Z,53.00
2022-10-21T14:24:52.416Z,54.71
2022-10-21T14:27:27.390Z,56.49
2022-10-21T14:29:56.978Z,57.59
2022-10-21T14:32:27.176Z,58.84
2022-10-21T14:34:57.676Z,60.30
2022-10-21T14:37:25.543Z,61.16
2022-10-21T14:39:53.211Z,62.41
2022-10-21T14:42:23.762Z,65.48
2022-10-21T14:44:59.044Z,61.50
2022-10-21T14:47:27.515Z,55.57
2022-10-21T14:49:59.860Z,52.41
2022-10-21T14:52:31.704Z,53.47
2022-10-21T14:55:03.082Z,55.52
2022-10-21T14:57:42.380Z,57.11
2022-10-21T15:00:32.824Z,58.91
2022-10-21T15:03:01.673Z,58.89
2022-10-21T15:05:48.853Z,59.85
2022-10-21T15:08:19.800Z,61.92
2022-10-21T15:11:12.221Z,65.91
2022-10-21T15:13:55.896Z,61.04
2022-10-21T15:16:27.933Z,53.64
2022-10-21T15:18:55.985Z,51.95
2022-10-21T15:21:36.537Z,52.73
2022-10-21T15:24:05.458Z,54.81
2022-10-21T15:26:39.217Z,56.42
2022-10-21T15:29:37.146Z,57.12
2022-10-21T15:32:06.476Z,58.88
2022-10-21T15:34:34.262Z,60.14
2022-10-21T15:37:01.993Z,61.13
2022-10-21T15:39:29.709Z,65.76
2022-10-21T15:41:58.968Z,64.07
2022-10-21T15:44:29.722Z,56.59
2022-10-21T15:47:01.050Z,52.92
2022-10-21T15:49:36.523Z,53.72
2022-10-21T15:52:05.475Z,55.07
2022-10-21T15:54:33.740Z,57.29
2022-10-21T15:57:02.696Z,58.93
2022-10-21T15:59:33.173Z,59.34
2022-10-21T16:02:02.187Z,60.96
2022-10-21T16:04:29.992Z,65.10
2022-10-21T16:06:58.562Z,64.74
2022-10-21T16:09:28.998Z,56.14
2022-10-21T16:12:00.319Z,53.17
2022-10-21T16:14:31.017Z,53.97
2022-10-21T16:16:59.827Z,55.76
2022-10-21T16:19:28.951Z,57.25
2022-10-21T16:21:57.028Z,58.83
2022-10-21T16:24:24.900Z,59.60
2022-10-21T16:26:52.769Z,61.15
2022-10-21T16:29:24.875Z,63.55
2022-10-21T16:31:52.681Z,67.49
2022-10-21T16:34:20.442Z,60.97
2022-10-21T16:36:48.217Z,54.17
2022-10-21T16:39:24.286Z,52.97
2022-10-21T16:41:52.194Z,54.49
2022-10-21T16:44:19.895Z,56.12
2022-10-21T16:46:55.150Z,57.13
2022-10-21T16:49:25.827Z,57.89
2022-10-21T16:51:54.650Z,59.61
2022-10-21T16:54:23.192Z,61.32
2022-10-21T16:56:53.368Z,66.24
2022-10-21T16:59:23.644Z,65.52
2022-10-21T17:01:52.167Z,56.91
2022-10-21T17:04:19.915Z,54.05
2022-10-21T17:06:48.483Z,54.33
2022-10-21T17:09:16.501Z,55.91
2022-10-21T17:11:44.261Z,56.95
2022-10-21T17:14:16.717Z,58.84
2022-10-21T17:16:45.485Z,60.16
2022-10-21T17:19:14.119Z,61.72
2022-10-21T17:21:41.985Z,67.02
2022-10-21T17:24:16.551Z,67.03
2022-10-21T17:26:45.083Z,60.29
2022-10-21T17:29:13.014Z,54.47
2022-10-21T17:31:43.502Z,52.14
2022-10-21T17:34:32.710Z,53.33
2022-10-21T17:37:00.601Z,54.81
2022-10-21T17:39:28.522Z,56.30
2022-10-21T17:41:56.480Z,57.90
2022-10-21T17:44:24.201Z,59.94
2022-10-21T17:46:54.624Z,61.84
2022-10-21T17:49:24.296Z,67.52
2022-10-21T17:51:51.981Z,65.42
2022-10-21T17:54:24.145Z,60.03
2022-10-21T17:56:56.864Z,54.30
2022-10-21T17:59:26.710Z,53.93
2022-10-21T18:01:54.400Z,55.00
2022-10-21T18:04:22.147Z,56.96
2022-10-21T18:06:49.890Z,59.05
2022-10-21T18:09:17.965Z,60.68
2022-10-21T18:11:45.836Z,61.15
2022-10-21T18:14:14.360Z,66.24
2022-10-21T18:16:42.005Z,67.78
2022-10-21T18:19:09.885Z,60.47
2022-10-21T18:21:37.669Z,54.37
2022-10-21T18:24:09.865Z,53.30
2022-10-21T18:26:40.249Z,54.84
2022-10-21T18:29:08.031Z,56.21
2022-10-21T18:31:37.338Z,58.15
2022-10-21T18:34:06.644Z,58.79
2022-10-21T18:36:34.594Z,59.83
2022-10-21T18:39:02.346Z,61.50
2022-10-21T18:41:30.449Z,66.52
2022-10-21T18:44:01.936Z,66.48
2022-10-21T18:46:30.430Z,59.57
2022-10-21T18:48:58.787Z,53.82
2022-10-21T18:51:26.549Z,53.89
2022-10-21T18:53:54.194Z,55.12
2022-10-21T18:56:24.432Z,57.13
2022-10-21T18:58:52.416Z,58.08
2022-10-21T19:01:21.484Z,59.60
2022-10-21T19:03:50.917Z,60.89
2022-10-21T19:06:41.180Z,65.80
2022-10-21T19:09:15.608Z,68.36
2022-10-21T19:11:44.065Z,59.94
2022-10-21T19:14:14.401Z,54.52
2022-10-21T19:16:44.595Z,54.10
2022-10-21T19:19:13.734Z,55.64
2022-10-21T19:21:41.906Z,57.45
2022-10-21T19:24:10.404Z,59.54
2022-10-21T19:26:40.788Z,60.43
2022-10-21T19:29:14.633Z,65.94
2022-10-21T19:31:43.507Z,65.79
2022-10-21T19:34:16.021Z,60.11
2022-10-21T19:36:44.168Z,53.88
2022-10-21T19:39:13.161Z,53.71
2022-10-21T19:41:41.466Z,55.47
2022-10-21T19:44:09.375Z,56.84
2022-10-21T19:46:37.810Z,58.02
2022-10-21T19:49:07.579Z,60.26
2022-10-21T19:51:36.789Z,65.05
2022-10-21T19:54:06.199Z,65.18
2022-10-21T19:56:35.022Z,59.41
2022-10-21T19:59:05.234Z,53.74
2022-10-21T20:01:34.583Z,54.00
2022-10-21T20:04:03.522Z,55.70
2022-10-21T20:06:34.240Z,57.29
2022-10-21T20:09:05.979Z,59.19
2022-10-21T20:11:33.970Z,61.28
2022-10-21T20:14:02.126Z,66.21
2022-10-21T20:16:33.181Z,65.50
2022-10-21T20:19:02.651Z,60.38
2022-10-21T20:21:31.074Z,55.44
2022-10-21T20:23:59.747Z,53.78
2022-10-21T20:26:28.958Z,54.88
2022-10-21T20:28:57.296Z,57.90
2022-10-21T20:31:24.961Z,59.28
2022-10-21T20:33:52.605Z,61.53
2022-10-21T20:36:25.617Z,67.20
2022-10-21T20:38:55.133Z,65.81
2022-10-21T20:41:24.081Z,60.56
2022-10-21T20:43:53.881Z,56.16
2022-10-21T20:46:24.494Z,55.62
2022-10-21T20:48:53.601Z,57.24
2022-10-21T20:51:29.008Z,59.45
2022-10-21T20:54:02.902Z,60.68
2022-10-21T20:56:36.603Z,67.08
2022-10-21T20:59:05.452Z,66.14
2022-10-21T21:01:36.363Z,60.88
2022-10-21T21:04:08.184Z,55.00
2022-10-21T21:06:37.989Z,54.79
2022-10-21T21:11:54.322Z,58.17
2022-10-21T21:14:21.933Z,60.04
2022-10-21T21:16:49.630Z,65.67
2022-10-21T21:19:19.364Z,65.81
2022-10-21T21:21:46.956Z,60.47
2022-10-21T21:24:14.592Z,56.16
2022-10-21T21:26:42.399Z,55.54
2022-10-21T21:29:10.321Z,57.54
2022-10-21T21:31:39.391Z,59.26
2022-10-21T21:34:08.301Z,60.41
2022-10-21T21:36:36.989Z,66.12
2022-10-21T21:39:06.592Z,66.18
2022-10-21T21:41:34.943Z,61.09
2022-10-21T21:44:05.083Z,55.54
2022-10-21T21:46:33.263Z,55.22
2022-10-21T21:49:05.506Z,56.83
2022-10-21T21:51:35.456Z,58.80
2022-10-21T21:54:04.738Z,60.93
2022-10-21T21:56:32.361Z,66.82
2022-10-21T21:59:00.151Z,65.95
2022-10-21T22:01:29.746Z,61.15
2022-10-21T22:03:58.448Z,56.29
2022-10-21T22:06:30.132Z,55.81
2022-10-21T22:08:59.357Z,57.23
2022-10-21T22:11:30.580Z,59.86
2022-10-21T22:13:58.636Z,61.44
2022-10-21T22:16:30.387Z,67.29
2022-10-21T22:19:00.160Z,66.62
2022-10-21T22:21:29.192Z,60.62
2022-10-21T22:23:56.846Z,55.88
2022-10-21T22:26:26.797Z,55.77
2022-10-21T22:28:55.047Z,57.97
2022-10-21T22:31:28.902Z,59.47
2022-10-21T22:34:01.815Z,60.84
2022-10-21T22:36:29.929Z,65.72
2022-10-21T22:38:58.039Z,65.53
2022-10-21T22:41:26.214Z,59.28
2022-10-21T22:43:53.825Z,54.72
2022-10-21T22:46:32.851Z,55.46
2022-10-21T22:49:06.119Z,57.34
2022-10-21T22:51:34.144Z,59.27
2022-10-21T22:54:01.752Z,60.31
2022-10-21T22:56:29.605Z,61.93
2022-10-21T22:58:57.689Z,67.97
2022-10-21T23:01:30.008Z,65.41
2022-10-21T23:04:02.570Z,59.30
2022-10-21T23:06:32.396Z,55.13
2022-10-21T23:09:01.268Z,55.95
2022-10-21T23:11:29.744Z,57.87
2022-10-21T23:14:03.300Z,59.58
2022-10-21T23:16:36.727Z,60.63
2022-10-21T23:19:07.140Z,66.09
2022-10-21T23:21:35.948Z,64.38
2022-10-21T23:24:05.121Z,57.76
2022-10-21T23:26:33.002Z,54.76
2022-10-21T23:29:00.879Z,56.20
2022-10-21T23:31:28.497Z,57.86
2022-10-21T23:33:56.252Z,59.30
2022-10-21T23:36:23.956Z,61.20
2022-10-21T23:38:56.061Z,66.22
2022-10-21T23:41:24.161Z,63.87
2022-10-21T23:43:51.936Z,58.11
2022-10-21T23:46:21.444Z,55.13
2022-10-21T23:48:49.807Z,56.46
2022-10-21T23:51:17.599Z,58.22
2022-10-21T23:53:45.502Z,60.26
2022-10-21T23:56:13.160Z,65.32
2022-10-21T23:58:40.824Z,64.26
